createdAt,value
2019-02-22T00:00:24.168Z,1022.2
2019-02-22T00:01:36.327Z,1022.2
2019-02-22T00:02:48.440Z,1022.2
2019-02-22T00:04:00.632Z,1022.2
2019-02-22T00:05:12.750Z,1022.3
2019-02-22T00:06:25.052Z,1022.2
2019-02-22T00:07:37.156Z,1022.2
2019-02-22T00:11:13.903Z,1022.3
2019-02-22T00:12:26.045Z,1022.2
2019-02-22T00:13:38.111Z,1022.2
2019-02-22T00:14:50.402Z,1022.2
2019-02-22T00:16:02.625Z,1022.3
2019-02-22T00:17:14.688Z,1022.3
2019-02-22T00:19:39.148Z,1022.3
2019-02-22T00:20:51.268Z,1022.4
2019-02-22T00:24:28.144Z,1022.4
2019-02-22T00:25:40.069Z,1022.4
2019-02-22T00:26:52.297Z,1022.4
2019-02-22T00:28:04.436Z,1022.5
2019-02-22T00:29:16.705Z,1022.5
2019-02-22T00:30:29.013Z,1022.4
2019-02-22T00:31:41.036Z,1022.4
2019-02-22T00:32:53.287Z,1022.5
2019-02-22T00:35:17.682Z,1022.4
2019-02-22T00:36:30.001Z,1022.5
2019-02-22T00:37:42.128Z,1022.5
2019-02-22T00:38:54.347Z,1022.5
2019-02-22T00:41:18.591Z,1022.5
2019-02-22T00:42:30.751Z,1022.5
2019-02-22T00:43:42.943Z,1022.5
2019-02-22T00:47:19.642Z,1022.5
2019-02-22T00:48:31.951Z,1022.6
2019-02-22T00:49:43.944Z,1022.7
2019-02-22T00:50:56.207Z,1022.7
2019-02-22T00:52:08.397Z,1022.7
2019-02-22T00:53:20.504Z,1022.7
2019-02-22T00:54:32.730Z,1022.7
2019-02-22T00:55:44.925Z,1022.6
2019-02-22T00:56:57.077Z,1022.7
2019-02-22T00:59:21.659Z,1022.7
2019-02-22T01:00:33.758Z,1022.8
2019-02-22T01:01:46.089Z,1022.7
2019-02-22T01:02:58.113Z,1022.7
2019-02-22T01:04:10.341Z,1022.8
2019-02-22T01:05:22.435Z,1022.8
2019-02-22T01:06:34.749Z,1022.7
2019-02-22T01:07:46.818Z,1022.8
2019-02-22T01:08:59.094Z,1022.7
2019-02-22T01:11:23.398Z,1022.7
2019-02-22T01:12:35.753Z,1022.8
2019-02-22T01:13:47.870Z,1022.8
2019-02-22T01:15:00.118Z,1022.8
2019-02-22T01:17:24.444Z,1022.8
2019-02-22T01:18:36.762Z,1022.7
2019-02-22T01:19:48.857Z,1022.7
2019-02-22T01:21:01.117Z,1022.7
2019-02-22T01:24:37.733Z,1022.7
2019-02-22T01:25:49.742Z,1022.8
2019-02-22T01:27:01.999Z,1022.8
2019-02-22T01:29:26.375Z,1022.7
2019-02-22T01:31:50.692Z,1022.7
2019-02-22T01:33:02.888Z,1022.8
2019-02-22T01:35:27.407Z,1022.8
2019-02-22T01:36:39.590Z,1022.8
2019-02-22T01:37:51.672Z,1022.9
2019-02-22T01:39:04.062Z,1022.9
2019-02-22T01:40:16.310Z,1022.9
2019-02-22T01:41:31.200Z,1022.9
2019-02-22T01:43:52.708Z,1022.9
2019-02-22T01:45:04.864Z,1022.9
2019-02-22T01:47:29.219Z,1022.8
2019-02-22T01:48:41.610Z,1022.9
2019-02-22T01:49:53.814Z,1022.8
2019-02-22T01:51:05.909Z,1022.8
2019-02-22T01:52:21.140Z,1022.8
2019-02-22T01:53:30.187Z,1022.8
2019-02-22T01:54:42.466Z,1022.8
2019-02-22T01:55:54.651Z,1022.8
2019-02-22T01:57:06.855Z,1022.9
2019-02-22T01:59:31.367Z,1022.9
2019-02-22T02:00:43.472Z,1022.9
2019-02-22T02:01:55.667Z,1022.9
2019-02-22T02:03:07.816Z,1022.9
2019-02-22T02:04:20.061Z,1022.8
2019-02-22T02:05:32.106Z,1022.9
2019-02-22T02:06:44.410Z,1022.9
2019-02-22T02:07:56.618Z,1022.9
2019-02-22T02:09:08.718Z,1022.9
2019-02-22T02:11:35.087Z,1022.9
2019-02-22T02:12:45.515Z,1022.9
2019-02-22T02:13:57.474Z,1022.9
2019-02-22T02:15:09.844Z,1022.9
2019-02-22T02:16:21.885Z,1022.9
2019-02-22T02:17:34.153Z,1022.9
2019-02-22T02:18:46.505Z,1022.9
2019-02-22T02:19:58.446Z,1022.9
2019-02-22T02:21:10.715Z,1022.9
2019-02-22T02:23:35.028Z,1022.9
2019-02-22T02:24:47.366Z,1022.9
2019-02-22T02:25:59.592Z,1023
2019-02-22T02:27:11.756Z,1023
2019-02-22T02:28:23.818Z,1022.9
2019-02-22T02:29:36.004Z,1022.9
2019-02-22T02:30:48.357Z,1023
2019-02-22T02:32:00.367Z,1023
2019-02-22T02:33:12.685Z,1023
2019-02-22T02:36:49.337Z,1023
2019-02-22T02:38:01.575Z,1023
2019-02-22T02:39:13.631Z,1023
2019-02-22T02:40:25.906Z,1023
2019-02-22T02:41:38.097Z,1023
2019-02-22T02:42:50.131Z,1023
2019-02-22T02:44:02.360Z,1023
2019-02-22T02:45:14.577Z,1023
2019-02-22T02:47:38.978Z,1023
2019-02-22T02:48:51.096Z,1023
2019-02-22T02:50:03.350Z,1023.1
2019-02-22T02:51:15.573Z,1023.1
2019-02-22T02:52:27.744Z,1023.1
2019-02-22T02:53:39.953Z,1023.1
2019-02-22T02:54:52.244Z,1023.1
2019-02-22T02:56:08.397Z,1023.1
2019-02-22T02:57:16.538Z,1023.1
2019-02-22T02:59:40.851Z,1023.1
2019-02-22T03:00:53.123Z,1023.2
2019-02-22T03:02:05.339Z,1023.2
2019-02-22T03:03:17.637Z,1023.2
2019-02-22T03:04:29.687Z,1023.2
2019-02-22T03:05:42.690Z,1023.2
2019-02-22T03:06:54.101Z,1023.2
2019-02-22T03:08:06.249Z,1023.2
2019-02-22T03:09:18.463Z,1023.1
2019-02-22T03:11:42.785Z,1023.1
2019-02-22T03:12:54.966Z,1023.1
2019-02-22T03:14:07.232Z,1023
2019-02-22T03:15:19.521Z,1023.1
2019-02-22T03:16:31.891Z,1023.1
2019-02-22T03:17:43.731Z,1023.1
2019-02-22T03:18:55.968Z,1023.2
2019-02-22T03:20:08.211Z,1023.1
2019-02-22T03:21:20.390Z,1023.2
2019-02-22T03:23:44.856Z,1023.2
2019-02-22T03:24:57.047Z,1023.3
2019-02-22T03:27:21.306Z,1023.2
2019-02-22T03:28:33.490Z,1023.1
2019-02-22T03:29:45.669Z,1023.2
2019-02-22T03:30:57.939Z,1023.3
2019-02-22T03:32:10.148Z,1023.2
2019-02-22T03:33:22.391Z,1023.3
2019-02-22T03:35:46.732Z,1023.3
2019-02-22T03:36:58.841Z,1023.3
2019-02-22T03:38:11.120Z,1023.3
2019-02-22T03:39:23.283Z,1023.3
2019-02-22T03:40:35.416Z,1023.3
2019-02-22T03:41:47.692Z,1023.3
2019-02-22T03:42:59.807Z,1023.4
2019-02-22T03:44:12.101Z,1023.4
2019-02-22T03:45:24.374Z,1023.5
2019-02-22T03:47:48.580Z,1023.4
2019-02-22T03:49:00.779Z,1023.4
2019-02-22T03:50:13.067Z,1023.5
2019-02-22T03:51:25.248Z,1023.5
2019-02-22T03:53:49.552Z,1023.5
2019-02-22T03:55:01.813Z,1023.5
2019-02-22T03:56:14.017Z,1023.5
2019-02-22T03:57:26.131Z,1023.6
2019-02-22T03:59:50.708Z,1023.6
2019-02-22T04:01:02.797Z,1023.6
2019-02-22T04:02:14.902Z,1023.6
2019-02-22T04:03:27.185Z,1023.6
2019-02-22T04:04:39.375Z,1023.6
2019-02-22T04:05:51.660Z,1023.6
2019-02-22T04:07:03.768Z,1023.6
2019-02-22T04:08:15.867Z,1023.6
2019-02-22T04:09:28.154Z,1023.6
2019-02-22T04:11:52.504Z,1023.6
2019-02-22T04:13:07.109Z,1023.6
2019-02-22T04:15:29.127Z,1023.6
2019-02-22T04:17:53.420Z,1023.6
2019-02-22T04:19:05.686Z,1023.7
2019-02-22T04:20:17.872Z,1023.6
2019-02-22T04:21:30.219Z,1023.7
2019-02-22T04:23:54.389Z,1023.7
2019-02-22T04:25:06.655Z,1023.6
2019-02-22T04:26:18.861Z,1023.6
2019-02-22T04:27:31.051Z,1023.7
2019-02-22T04:28:43.274Z,1023.7
2019-02-22T04:29:56.397Z,1023.7
2019-02-22T04:31:07.647Z,1023.7
2019-02-22T04:32:19.774Z,1023.7
2019-02-22T04:33:31.931Z,1023.7
2019-02-22T04:35:56.394Z,1023.7
2019-02-22T04:37:08.602Z,1023.7
2019-02-22T04:39:32.989Z,1023.7
2019-02-22T04:40:45.169Z,1023.8
2019-02-22T04:41:57.373Z,1023.8
2019-02-22T04:44:21.757Z,1023.8
2019-02-22T04:45:33.955Z,1023.9
2019-02-22T04:47:58.276Z,1023.9
2019-02-22T04:49:10.472Z,1023.9
2019-02-22T04:50:22.834Z,1023.9
2019-02-22T04:51:34.913Z,1024
2019-02-22T04:52:47.039Z,1024
2019-02-22T04:53:59.247Z,1023.9
2019-02-22T04:55:11.507Z,1023.9
2019-02-22T04:56:23.613Z,1023.9
2019-02-22T04:57:35.951Z,1024
2019-02-22T05:00:00.287Z,1024
2019-02-22T05:01:12.406Z,1024
2019-02-22T05:02:24.580Z,1024
2019-02-22T05:03:36.775Z,1024
2019-02-22T05:06:01.306Z,1024
2019-02-22T05:07:13.370Z,1024.1
2019-02-22T05:08:25.571Z,1024
2019-02-22T05:09:37.853Z,1024.1
2019-02-22T05:12:02.354Z,1024.1
2019-02-22T05:13:14.354Z,1024.1
2019-02-22T05:14:26.554Z,1024.1
2019-02-22T05:15:38.789Z,1024.1
2019-02-22T05:16:51.012Z,1024.1
2019-02-22T05:18:05.508Z,1024.1
2019-02-22T05:19:16.066Z,1024.1
2019-02-22T05:20:27.739Z,1024.1
2019-02-22T05:21:40.985Z,1024.1
2019-02-22T05:24:04.149Z,1024.1
2019-02-22T05:25:16.419Z,1024
2019-02-22T05:26:28.599Z,1024
2019-02-22T05:27:40.786Z,1024.1
2019-02-22T05:28:52.858Z,1024.1
2019-02-22T05:30:05.151Z,1024
2019-02-22T05:31:17.406Z,1024.1
2019-02-22T05:32:29.422Z,1024.1
2019-02-22T05:33:41.730Z,1024.1
2019-02-22T05:36:06.004Z,1024.1
2019-02-22T05:37:18.286Z,1024.1
2019-02-22T05:38:30.411Z,1024.2
2019-02-22T05:39:42.697Z,1024.2
2019-02-22T05:40:54.978Z,1024.3
2019-02-22T05:42:07.064Z,1024.3
2019-02-22T05:43:19.273Z,1024.3
2019-02-22T05:44:31.589Z,1024.3
2019-02-22T05:45:43.576Z,1024.4
2019-02-22T05:48:08.054Z,1024.4
2019-02-22T05:49:20.229Z,1024.3
2019-02-22T05:50:32.419Z,1024.4
2019-02-22T05:51:44.600Z,1024.4
2019-02-22T05:52:56.726Z,1024.4
2019-02-22T05:54:08.931Z,1024.4
2019-02-22T05:55:21.137Z,1024.4
2019-02-22T05:56:33.305Z,1024.4
2019-02-22T05:57:45.623Z,1024.5
2019-02-22T06:01:22.087Z,1024.5
2019-02-22T06:02:34.284Z,1024.5
2019-02-22T06:03:46.536Z,1024.6
2019-02-22T06:04:58.737Z,1024.5
2019-02-22T06:06:10.855Z,1024.6
2019-02-22T06:07:23.124Z,1024.5
2019-02-22T06:08:35.244Z,1024.6
2019-02-22T06:09:47.461Z,1024.6
2019-02-22T06:12:11.906Z,1024.7
2019-02-22T06:13:24.079Z,1024.7
2019-02-22T06:14:36.300Z,1024.7
2019-02-22T06:15:48.463Z,1024.7
2019-02-22T06:17:00.759Z,1024.8
2019-02-22T06:18:12.905Z,1024.7
2019-02-22T06:19:24.992Z,1024.7
2019-02-22T06:20:37.181Z,1024.7
2019-02-22T06:21:49.478Z,1024.7
2019-02-22T06:24:13.824Z,1024.7
2019-02-22T06:25:26.034Z,1024.8
2019-02-22T06:26:38.209Z,1024.8
2019-02-22T06:27:50.406Z,1024.8
2019-02-22T06:29:02.621Z,1024.8
2019-02-22T06:30:14.729Z,1024.9
2019-02-22T06:32:39.227Z,1024.9
2019-02-22T06:33:51.301Z,1024.9
2019-02-22T06:36:15.776Z,1024.9
2019-02-22T06:37:27.959Z,1024.9
2019-02-22T06:39:52.417Z,1025
2019-02-22T06:42:19.735Z,1025
2019-02-22T06:43:30.335Z,1025
2019-02-22T06:44:41.152Z,1025
2019-02-22T06:45:53.262Z,1025
2019-02-22T06:49:29.846Z,1025
2019-02-22T06:50:42.053Z,1025
2019-02-22T06:51:54.246Z,1025
2019-02-22T06:53:06.608Z,1025.1
2019-02-22T06:54:18.614Z,1025
2019-02-22T06:55:31.416Z,1025
2019-02-22T06:56:43.075Z,1025
2019-02-22T06:57:55.209Z,1025
2019-02-22T06:59:07.700Z,1025
2019-02-22T07:00:19.632Z,1025
2019-02-22T07:01:31.857Z,1025
2019-02-22T07:02:43.992Z,1025
2019-02-22T07:03:56.252Z,1025.1
2019-02-22T07:05:08.377Z,1025.1
2019-02-22T07:06:20.593Z,1025.1
2019-02-22T07:07:32.922Z,1025.1
2019-02-22T07:08:44.951Z,1025.2
2019-02-22T07:09:57.150Z,1025.2
2019-02-22T07:11:09.444Z,1025.2
2019-02-22T07:12:21.547Z,1025.3
2019-02-22T07:13:33.809Z,1025.3
2019-02-22T07:14:45.933Z,1025.2
2019-02-22T07:15:58.228Z,1025.3
2019-02-22T07:17:10.424Z,1025.2
2019-02-22T07:18:22.630Z,1025.3
2019-02-22T07:19:34.818Z,1025.3
2019-02-22T07:20:47.003Z,1025.3
2019-02-22T07:21:59.167Z,1025.3
2019-02-22T07:23:11.392Z,1025.3
2019-02-22T07:24:23.533Z,1025.3
2019-02-22T07:25:35.684Z,1025.4
2019-02-22T07:26:47.962Z,1025.3
2019-02-22T07:28:00.386Z,1025.3
2019-02-22T07:29:12.384Z,1025.4
2019-02-22T07:30:24.497Z,1025.3
2019-02-22T07:31:36.770Z,1025.3
2019-02-22T07:32:48.897Z,1025.3
2019-02-22T07:36:25.507Z,1025.4
2019-02-22T07:37:37.803Z,1025.5
2019-02-22T07:40:02.151Z,1025.4
2019-02-22T07:41:14.303Z,1025.5
2019-02-22T07:42:26.422Z,1025.5
2019-02-22T07:43:38.746Z,1025.5
2019-02-22T07:44:50.887Z,1025.5
2019-02-22T07:46:03.061Z,1025.5
2019-02-22T07:48:27.434Z,1025.6
2019-02-22T07:49:39.628Z,1025.6
2019-02-22T07:50:52.025Z,1025.7
2019-02-22T07:52:03.977Z,1025.7
2019-02-22T07:53:16.286Z,1025.7
2019-02-22T07:54:28.399Z,1025.7
2019-02-22T07:55:40.568Z,1025.7
2019-02-22T07:56:52.826Z,1025.7
2019-02-22T07:58:04.969Z,1025.8
2019-02-22T08:00:29.338Z,1025.8
2019-02-22T08:01:41.559Z,1025.8
2019-02-22T08:02:53.739Z,1025.8
2019-02-22T08:04:05.933Z,1025.9
2019-02-22T08:05:18.221Z,1025.9
2019-02-22T08:06:30.329Z,1025.9
2019-02-22T08:07:42.517Z,1025.9
2019-02-22T08:08:54.709Z,1025.9
2019-02-22T08:10:06.908Z,1025.9
2019-02-22T08:12:31.630Z,1026
2019-02-22T08:13:43.624Z,1026
2019-02-22T08:14:55.703Z,1026
2019-02-22T08:16:07.909Z,1026.1
2019-02-22T08:17:20.301Z,1026.1
2019-02-22T08:18:32.397Z,1026.1
2019-02-22T08:19:44.489Z,1026.1
2019-02-22T08:20:56.742Z,1026.1
2019-02-22T08:24:33.278Z,1026.2
2019-02-22T08:25:45.563Z,1026.1
2019-02-22T08:26:58.161Z,1026.2
2019-02-22T08:28:09.842Z,1026.2
2019-02-22T08:30:34.344Z,1026.3
2019-02-22T08:31:46.497Z,1026.3
2019-02-22T08:32:58.692Z,1026.3
2019-02-22T08:36:35.234Z,1026.4
2019-02-22T08:37:47.509Z,1026.4
2019-02-22T08:38:59.686Z,1026.5
2019-02-22T08:40:11.950Z,1026.5
2019-02-22T08:41:24.123Z,1026.5
2019-02-22T08:42:36.250Z,1026.5
2019-02-22T08:43:48.379Z,1026.5
2019-02-22T08:45:00.559Z,1026.5
2019-02-22T08:46:12.873Z,1026.5
2019-02-22T08:48:37.261Z,1026.6
2019-02-22T08:49:49.354Z,1026.5
2019-02-22T08:51:01.861Z,1026.7
2019-02-22T08:52:13.831Z,1026.7
2019-02-22T08:53:25.929Z,1026.7
2019-02-22T08:54:38.224Z,1026.7
2019-02-22T08:55:50.534Z,1026.7
2019-02-22T08:57:02.655Z,1026.7
2019-02-22T09:00:39.108Z,1026.7
2019-02-22T09:01:51.330Z,1026.7
2019-02-22T09:04:16.042Z,1026.8
2019-02-22T09:05:27.947Z,1026.8
2019-02-22T09:06:40.144Z,1026.8
2019-02-22T09:07:52.277Z,1026.8
2019-02-22T09:09:04.544Z,1026.8
2019-02-22T09:10:16.665Z,1026.8
2019-02-22T09:13:53.324Z,1026.9
2019-02-22T09:15:05.450Z,1026.9
2019-02-22T09:16:17.759Z,1026.9
2019-02-22T09:17:30.064Z,1027
2019-02-22T09:18:42.064Z,1027
2019-02-22T09:19:54.314Z,1027
2019-02-22T09:21:06.443Z,1027
2019-02-22T09:22:18.651Z,1027
2019-02-22T09:24:43.083Z,1027.1
2019-02-22T09:25:55.509Z,1027
2019-02-22T09:27:07.402Z,1027.1
2019-02-22T09:28:19.599Z,1027
2019-02-22T09:29:31.805Z,1027
2019-02-22T09:30:44.071Z,1027
2019-02-22T09:31:57.916Z,1027
2019-02-22T09:33:08.487Z,1027
2019-02-22T09:34:20.676Z,1027.1
2019-02-22T09:36:44.958Z,1027.1
2019-02-22T09:37:57.236Z,1027.1
2019-02-22T09:39:09.448Z,1027.1
2019-02-22T09:40:21.619Z,1027.1
2019-02-22T09:41:33.745Z,1027.1
2019-02-22T09:42:45.959Z,1027.1
2019-02-22T09:45:10.362Z,1027.1
2019-02-22T09:46:22.723Z,1027.1
2019-02-22T09:48:47.025Z,1027.1
2019-02-22T09:49:59.183Z,1027.1
2019-02-22T09:51:11.565Z,1027.1
2019-02-22T09:52:23.642Z,1027.1
2019-02-22T09:53:35.802Z,1027
2019-02-22T09:54:48.052Z,1027.2
2019-02-22T09:56:00.102Z,1027.1
2019-02-22T09:57:12.308Z,1027.1
2019-02-22T10:02:01.132Z,1027.1
2019-02-22T10:04:25.620Z,1027.1
2019-02-22T10:05:37.738Z,1027.1
2019-02-22T10:06:53.455Z,1027.1
2019-02-22T10:08:02.167Z,1027.1
2019-02-22T10:09:14.328Z,1027.1
2019-02-22T10:10:26.461Z,1027.1
2019-02-22T10:12:50.904Z,1027.2
2019-02-22T10:14:03.209Z,1027.2
2019-02-22T10:15:15.343Z,1027.2
2019-02-22T10:16:29.640Z,1027.2
2019-02-22T10:17:39.609Z,1027.2
2019-02-22T10:18:51.807Z,1027.2
2019-02-22T10:20:04.002Z,1027.2
2019-02-22T10:21:16.279Z,1027.2
2019-02-22T10:22:28.458Z,1027.2
2019-02-22T10:26:05.236Z,1027.2
2019-02-22T10:28:29.503Z,1027.5
2019-02-22T10:30:53.829Z,1027.3
2019-02-22T10:32:06.048Z,1027.2
2019-02-22T10:33:18.214Z,1027.2
2019-02-22T10:36:54.817Z,1027.4
2019-02-22T10:38:06.914Z,1027.4
2019-02-22T10:40:31.542Z,1027.2
2019-02-22T10:41:43.633Z,1027.5
2019-02-22T10:42:55.709Z,1027.5
2019-02-22T10:44:08.125Z,1027.3
2019-02-22T10:45:20.101Z,1027.3
2019-02-22T10:50:08.955Z,1027.3
2019-02-22T10:51:21.147Z,1027.2
2019-02-22T10:54:57.659Z,1027.3
2019-02-22T10:57:22.047Z,1027.3
2019-02-22T10:58:34.414Z,1027.2
2019-02-22T11:02:10.907Z,1027.3
2019-02-22T11:04:35.230Z,1027.4
2019-02-22T11:05:47.488Z,1027.4
2019-02-22T11:06:59.673Z,1027.4
2019-02-22T11:08:13.231Z,1027.4
2019-02-22T11:09:24.161Z,1027.4
2019-02-22T11:10:36.270Z,1027.4
2019-02-22T11:13:00.655Z,1027.4
2019-02-22T11:14:12.846Z,1027.4
2019-02-22T11:16:37.211Z,1027.4
2019-02-22T11:17:49.357Z,1027.4
2019-02-22T11:19:01.555Z,1027.4
2019-02-22T11:20:13.849Z,1027.4
2019-02-22T11:21:26.049Z,1027.4
2019-02-22T11:22:38.225Z,1027.4
2019-02-22T11:25:02.604Z,1027.4
2019-02-22T11:26:14.870Z,1027.4
2019-02-22T11:27:26.999Z,1027.4
2019-02-22T11:28:39.219Z,1027.3
2019-02-22T11:29:51.349Z,1027.3
2019-02-22T11:31:03.516Z,1027.3
2019-02-22T11:32:15.697Z,1027.3
2019-02-22T11:33:28.009Z,1027.4
2019-02-22T11:34:40.091Z,1027.3
2019-02-22T11:38:16.681Z,1027.5
2019-02-22T11:39:28.961Z,1027.4
2019-02-22T11:40:44.839Z,1027.5
2019-02-22T11:41:55.072Z,1027.5
2019-02-22T11:43:05.463Z,1027.5
2019-02-22T11:45:29.982Z,1027.6
2019-02-22T11:49:06.534Z,1027.4
2019-02-22T11:50:18.632Z,1027.4
2019-02-22T11:51:30.832Z,1027.6
2019-02-22T11:52:43.023Z,1027.5
2019-02-22T11:55:08.650Z,1027.4
2019-02-22T11:56:19.630Z,1027.4
2019-02-22T11:57:31.879Z,1027.4
2019-02-22T11:58:44.006Z,1027.5
2019-02-22T12:01:08.391Z,1027.5
2019-02-22T12:02:20.578Z,1027.5
2019-02-22T12:04:45.058Z,1027.5
2019-02-22T12:05:58.017Z,1027.5
2019-02-22T12:07:09.520Z,1027.4
2019-02-22T12:08:21.558Z,1027.4
2019-02-22T12:09:33.930Z,1027.5
2019-02-22T12:13:10.411Z,1027.4
2019-02-22T12:14:22.712Z,1027.4
2019-02-22T12:16:46.975Z,1027.4
2019-02-22T12:19:11.313Z,1027.4
2019-02-22T12:20:23.510Z,1027.4
2019-02-22T12:21:35.713Z,1027.4
2019-02-22T12:22:47.921Z,1027.5
2019-02-22T12:26:24.525Z,1027.5
2019-02-22T12:28:48.991Z,1027.5
2019-02-22T12:30:01.389Z,1027.5
2019-02-22T12:31:13.331Z,1027.5
2019-02-22T12:32:25.605Z,1027.5
2019-02-22T12:33:37.732Z,1027.5
2019-02-22T12:34:49.928Z,1027.5
2019-02-22T12:38:26.539Z,1027.5
2019-02-22T12:40:50.864Z,1027.5
2019-02-22T12:43:15.278Z,1027.6
2019-02-22T12:45:39.597Z,1027.5
2019-02-22T12:46:52.026Z,1027.5
2019-02-22T12:49:16.346Z,1027.5
2019-02-22T12:50:28.392Z,1027.5
2019-02-22T12:51:40.684Z,1027.5
2019-02-22T12:52:52.961Z,1027.6
2019-02-22T12:54:05.056Z,1027.6
2019-02-22T12:55:17.259Z,1027.6
2019-02-22T12:56:29.434Z,1027.6
2019-02-22T12:57:41.623Z,1027.7
2019-02-22T12:58:53.820Z,1027.6
2019-02-22T13:01:18.277Z,1027.6
2019-02-22T13:02:30.428Z,1027.6
2019-02-22T13:03:42.661Z,1027.6
2019-02-22T13:04:54.802Z,1027.6
2019-02-22T13:06:07.175Z,1027.7
2019-02-22T13:07:19.161Z,1027.8
2019-02-22T13:09:43.580Z,1027.7
2019-02-22T13:13:20.094Z,1027.7
2019-02-22T13:14:32.319Z,1027.7
2019-02-22T13:15:44.579Z,1027.7
2019-02-22T13:16:56.697Z,1027.8
2019-02-22T13:18:08.964Z,1027.7
2019-02-22T13:19:21.074Z,1027.7
2019-02-22T13:20:33.278Z,1027.7
2019-02-22T13:21:45.574Z,1027.8
2019-02-22T13:22:57.755Z,1027.7
2019-02-22T13:25:22.139Z,1027.7
2019-02-22T13:26:34.290Z,1027.7
2019-02-22T13:27:46.566Z,1027.7
2019-02-22T13:28:58.636Z,1027.7
2019-02-22T13:30:11.044Z,1027.7
2019-02-22T13:31:23.036Z,1027.7
2019-02-22T13:32:35.295Z,1027.7
2019-02-22T13:33:47.540Z,1027.7
2019-02-22T13:34:59.611Z,1027.7
2019-02-22T13:37:24.109Z,1027.7
2019-02-22T13:38:36.294Z,1027.7
2019-02-22T13:41:00.726Z,1027.8
2019-02-22T13:42:12.779Z,1027.7
2019-02-22T13:43:24.977Z,1027.7
2019-02-22T13:45:49.357Z,1027.7
2019-02-22T13:47:01.617Z,1027.7
2019-02-22T13:49:27.799Z,1027.7
2019-02-22T13:50:38.295Z,1027.7
2019-02-22T13:51:50.369Z,1027.7
2019-02-22T13:53:02.621Z,1027.7
2019-02-22T13:54:14.761Z,1027.6
2019-02-22T13:55:26.932Z,1027.6
2019-02-22T13:56:39.213Z,1027.6
2019-02-22T13:57:51.395Z,1027.7
2019-02-22T13:59:03.547Z,1027.7
2019-02-22T14:01:27.920Z,1027.7
2019-02-22T14:02:40.112Z,1027.7
2019-02-22T14:03:52.415Z,1027.7
2019-02-22T14:05:04.501Z,1027.6
2019-02-22T14:06:16.702Z,1027.7
2019-02-22T14:07:28.966Z,1027.7
2019-02-22T14:08:41.265Z,1027.7
2019-02-22T14:09:53.272Z,1027.7
2019-02-22T14:11:05.577Z,1027.7
2019-02-22T14:14:42.119Z,1027.7
2019-02-22T14:15:54.531Z,1027.7
2019-02-22T14:17:06.511Z,1027.7
2019-02-22T14:18:18.711Z,1027.7
2019-02-22T14:19:30.822Z,1027.7
2019-02-22T14:20:43.303Z,1027.6
2019-02-22T14:21:55.213Z,1027.7
2019-02-22T14:23:07.413Z,1027.6
2019-02-22T14:25:31.893Z,1027.6
2019-02-22T14:27:18.997Z,1027.5
2019-02-22T14:27:56.290Z,1027.5
2019-02-22T14:29:08.505Z,1027.5
2019-02-22T14:30:20.633Z,1027.4
2019-02-22T14:31:32.811Z,1027.5
2019-02-22T14:32:44.981Z,1027.5
2019-02-22T14:33:57.251Z,1027.5
2019-02-22T14:35:09.492Z,1027.5
2019-02-22T14:38:45.993Z,1027.5
2019-02-22T14:39:58.173Z,1027.5
2019-02-22T14:41:10.460Z,1027.5
2019-02-22T14:43:34.731Z,1027.6
2019-02-22T14:44:47.053Z,1027.6
2019-02-22T14:45:59.109Z,1027.6
2019-02-22T14:47:11.374Z,1027.6
2019-02-22T14:49:35.790Z,1027.6
2019-02-22T14:50:47.937Z,1027.6
2019-02-22T14:52:00.190Z,1027.5
2019-02-22T14:53:12.299Z,1027.6
2019-02-22T14:54:24.489Z,1027.5
2019-02-22T14:55:36.688Z,1027.6
2019-02-22T14:58:01.069Z,1027.6
2019-02-22T14:59:13.289Z,1027.6
2019-02-22T15:01:37.723Z,1027.6
2019-02-22T15:02:51.005Z,1027.7
2019-02-22T15:04:02.125Z,1027.6
2019-02-22T15:05:14.248Z,1027.6
2019-02-22T15:06:26.430Z,1027.6
2019-02-22T15:07:38.666Z,1027.6
2019-02-22T15:08:50.935Z,1027.7
2019-02-22T15:10:03.115Z,1027.7
2019-02-22T15:11:15.274Z,1027.6
2019-02-22T15:13:39.611Z,1027.7
2019-02-22T15:14:51.886Z,1027.7
2019-02-22T15:16:04.031Z,1027.7
2019-02-22T15:17:16.277Z,1027.7
2019-02-22T15:19:40.583Z,1027.6
2019-02-22T15:20:52.787Z,1027.7
2019-02-22T15:22:05.023Z,1027.6
2019-02-22T15:23:17.246Z,1027.6
2019-02-22T15:25:41.638Z,1027.6
2019-02-22T15:26:53.760Z,1027.6
2019-02-22T15:28:05.964Z,1027.7
2019-02-22T15:29:18.146Z,1027.7
2019-02-22T15:30:30.366Z,1027.7
2019-02-22T15:31:42.613Z,1027.6
2019-02-22T15:32:54.735Z,1027.7
2019-02-22T15:34:06.931Z,1027.7
2019-02-22T15:35:19.191Z,1027.7
2019-02-22T15:37:43.538Z,1027.7
2019-02-22T15:38:55.748Z,1027.7
2019-02-22T15:40:07.909Z,1027.8
2019-02-22T15:41:20.157Z,1027.8
2019-02-22T15:42:32.349Z,1027.8
2019-02-22T15:43:44.488Z,1027.7
2019-02-22T15:44:56.743Z,1027.8
2019-02-22T15:46:08.979Z,1027.7
2019-02-22T15:47:21.148Z,1027.7
2019-02-22T15:49:45.471Z,1027.8
2019-02-22T15:50:57.747Z,1027.8
2019-02-22T15:52:09.961Z,1027.8
2019-02-22T15:53:22.154Z,1027.8
2019-02-22T15:54:34.268Z,1027.8
2019-02-22T15:55:46.470Z,1027.8
2019-02-22T15:56:58.733Z,1027.8
2019-02-22T15:58:10.918Z,1027.7
2019-02-22T15:59:23.044Z,1027.7
2019-02-22T16:01:47.560Z,1027.8
2019-02-22T16:02:59.617Z,1027.7
2019-02-22T16:04:11.813Z,1027.7
2019-02-22T16:05:24.020Z,1027.7
2019-02-22T16:06:36.284Z,1027.7
2019-02-22T16:07:48.508Z,1027.8
2019-02-22T16:09:00.742Z,1027.7
2019-02-22T16:10:12.791Z,1027.8
2019-02-22T16:11:25.071Z,1027.8
2019-02-22T16:13:49.455Z,1027.8
2019-02-22T16:15:01.566Z,1027.8
2019-02-22T16:16:13.912Z,1027.7
2019-02-22T16:17:26.028Z,1027.7
2019-02-22T16:18:38.145Z,1027.7
2019-02-22T16:19:50.364Z,1027.7
2019-02-22T16:21:02.549Z,1027.7
2019-02-22T16:22:14.812Z,1027.7
2019-02-22T16:23:27.113Z,1027.7
2019-02-22T16:25:51.313Z,1027.7
2019-02-22T16:27:03.608Z,1027.7
2019-02-22T16:28:15.717Z,1027.7
2019-02-22T16:29:27.921Z,1027.7
2019-02-22T16:30:40.174Z,1027.7
2019-02-22T16:31:52.363Z,1027.7
2019-02-22T16:33:04.476Z,1027.7
2019-02-22T16:34:16.752Z,1027.8
2019-02-22T16:35:28.935Z,1027.8
2019-02-22T16:37:53.261Z,1027.8
2019-02-22T16:39:05.530Z,1027.8
2019-02-22T16:40:17.722Z,1027.9
2019-02-22T16:41:30.013Z,1027.9
2019-02-22T16:42:42.138Z,1027.9
2019-02-22T16:43:54.406Z,1027.9
2019-02-22T16:45:06.520Z,1027.8
2019-02-22T16:46:18.719Z,1027.8
2019-02-22T16:47:30.804Z,1027.9
2019-02-22T16:49:55.215Z,1027.8
2019-02-22T16:51:07.384Z,1027.8
2019-02-22T16:52:19.773Z,1027.8
2019-02-22T16:53:31.776Z,1027.8
2019-02-22T16:54:44.060Z,1027.8
2019-02-22T16:55:56.376Z,1027.8
2019-02-22T16:57:08.355Z,1027.9
2019-02-22T16:58:20.636Z,1027.9
2019-02-22T16:59:32.761Z,1027.9
2019-02-22T17:01:57.142Z,1027.9
2019-02-22T17:03:09.405Z,1027.9
2019-02-22T17:04:21.521Z,1027.9
2019-02-22T17:05:33.824Z,1027.9
2019-02-22T17:06:45.997Z,1028
2019-02-22T17:07:58.371Z,1028
2019-02-22T17:09:10.290Z,1028
2019-02-22T17:10:22.566Z,1028.1
2019-02-22T17:11:34.686Z,1028.1
2019-02-22T17:13:59.150Z,1028
2019-02-22T17:15:11.335Z,1028
2019-02-22T17:16:23.582Z,1028.1
2019-02-22T17:17:35.653Z,1028.1
2019-02-22T17:18:47.912Z,1028.1
2019-02-22T17:20:00.071Z,1028.1
2019-02-22T17:21:12.314Z,1028.1
2019-02-22T17:22:28.187Z,1028.1
2019-02-22T17:23:36.615Z,1028.1
2019-02-22T17:26:01.078Z,1028.2
2019-02-22T17:27:13.287Z,1028.2
2019-02-22T17:29:37.604Z,1028.3
2019-02-22T17:30:49.865Z,1028.2
2019-02-22T17:32:01.970Z,1028.2
2019-02-22T17:33:14.170Z,1028.2
2019-02-22T17:34:26.433Z,1028.2
2019-02-22T17:35:38.635Z,1028.2
2019-02-22T17:38:03.050Z,1028.2
2019-02-22T17:39:15.138Z,1028.2
2019-02-22T17:40:27.345Z,1028.3
2019-02-22T17:41:39.540Z,1028.2
2019-02-22T17:42:51.722Z,1028.2
2019-02-22T17:44:03.936Z,1028.3
2019-02-22T17:45:16.203Z,1028.2
2019-02-22T17:46:28.357Z,1028.2
2019-02-22T17:47:40.576Z,1028.2
2019-02-22T17:50:04.910Z,1028.3
2019-02-22T17:51:17.085Z,1028.2
2019-02-22T17:52:29.302Z,1028.2
2019-02-22T17:53:41.514Z,1028.3
2019-02-22T17:54:53.732Z,1028.3
2019-02-22T17:56:05.856Z,1028.3
2019-02-22T17:57:18.059Z,1028.4
2019-02-22T17:58:30.246Z,1028.4
2019-02-22T18:02:07.015Z,1028.4
2019-02-22T18:03:19.152Z,1028.5
2019-02-22T18:04:31.295Z,1028.4
2019-02-22T18:05:43.407Z,1028.5
2019-02-22T18:06:55.601Z,1028.5
2019-02-22T18:08:07.799Z,1028.5
2019-02-22T18:09:19.984Z,1028.6
2019-02-22T18:10:32.248Z,1028.6
2019-02-22T18:11:44.380Z,1028.5
2019-02-22T18:14:08.846Z,1028.5
2019-02-22T18:15:20.952Z,1028.5
2019-02-22T18:16:33.313Z,1028.4
2019-02-22T18:17:45.421Z,1028.3
2019-02-22T18:18:57.615Z,1028.4